Time;durP1;ratioP1;P1;durP2;ratioP2;P2;SDS_P1;SDS_P2;PMS_P1;PMS_P2;Temp;Humidity;BMP_temperature;BMP_pressure;BME280_temperature;BME280_humidity;BME280_pressure;Samples;Min_cycle;Max_cycle;Signal;HPM_P1;HPM_P2
2023/01/24 00:01:40;;;;;;;2.85;2.13;;;;;;;2.60;88.15;104053.50;5035851;28;99156;-28
2023/01/24 00:04:05;;;;;;;5.28;2.80;;;;;;;2.62;88.54;104054.44;5035760;27;96476;-29
2023/01/24 00:06:30;;;;;;;4.13;3.10;;;;;;;2.62;88.57;104057.13;5035596;28;96889;-28
2023/01/24 00:08:56;;;;;;;4.18;2.38;;;;;;;2.63;88.27;104049.16;5034853;28;104446;-28
2023/01/24 00:11:21;;;;;;;9.43;4.65;;;;;;;2.64;88.83;104050.03;5035098;27;97348;-29
2023/01/24 00:13:46;;;;;;;6.97;3.70;;;;;;;2.64;88.38;104047.38;5035489;28;96627;-29
2023/01/24 00:16:20;;;;;;;3.95;2.50;;;;;;;2.67;88.61;104047.44;5035698;28;96742;-28
2023/01/24 00:18:46;;;;;;;4.72;2.95;;;;;;;2.65;88.67;104039.38;5035577;27;97444;-28
2023/01/24 00:21:20;;;;;;;3.25;2.63;;;;;;;2.68;88.76;104043.91;5033745;28;101262;-28
2023/01/24 00:23:48;;;;;;;4.18;2.97;;;;;;;2.63;88.63;104045.56;5033545;28;96899;-28
2023/01/24 00:26:15;;;;;;;10.15;3.28;;;;;;;2.62;88.55;104047.34;5034240;28;96899;-28
2023/01/24 00:28:40;;;;;;;5.85;4.07;;;;;;;2.60;88.33;104050.84;5033681;28;101059;-28
2023/01/24 00:31:06;;;;;;;3.50;2.60;;;;;;;2.57;88.32;104034.72;5035120;28;97862;-29
2023/01/24 00:33:32;;;;;;;4.55;2.63;;;;;;;2.61;88.35;104044.63;5034797;27;96519;-28
2023/01/24 00:35:58;;;;;;;5.60;2.85;;;;;;;2.61;88.73;104048.19;5033811;28;97368;-29
2023/01/24 00:38:24;;;;;;;7.15;3.78;;;;;;;2.63;88.89;104050.94;5033589;28;100961;-28
2023/01/24 00:40:50;;;;;;;4.15;2.47;;;;;;;2.63;88.53;104053.59;5034583;28;99428;-29
2023/01/24 00:43:15;;;;;;;2.53;1.80;;;;;;;2.62;88.66;104043.75;5033743;28;96584;-29
2023/01/24 00:45:41;;;;;;;5.90;3.25;;;;;;;2.60;88.44;104038.38;5035332;28;96820;-28
2023/01/24 00:48:08;;;;;;;4.63;3.10;;;;;;;2.59;88.68;104041.91;5035035;28;97973;-28
2023/01/24 00:50:34;;;;;;;4.28;3.20;;;;;;;2.62;88.80;104043.75;5033552;28;100555;-28
2023/01/24 00:53:00;;;;;;;6.85;2.78;;;;;;;2.58;88.57;104044.56;5035173;27;96486;-29
2023/01/24 00:55:26;;;;;;;3.58;2.63;;;;;;;2.55;88.14;104032.91;5034893;28;96686;-30
2023/01/24 00:57:51;;;;;;;4.45;3.22;;;;;;;2.56;88.47;104031.16;5032765;28;101080;-28
2023/01/24 01:00:17;;;;;;;7.20;2.65;;;;;;;2.57;88.22;104034.72;5034830;28;97768;-29
2023/01/24 01:02:42;;;;;;;4.72;3.20;;;;;;;2.54;87.93;104031.09;5034677;27;96542;-28
2023/01/24 01:05:08;;;;;;;3.17;2.65;;;;;;;2.48;87.75;104030.03;5034723;28;96982;-29
2023/01/24 01:07:34;;;;;;;3.13;2.42;;;;;;;2.52;88.33;104022.13;5034744;27;97977;-28
2023/01/24 01:09:59;;;;;;;3.67;2.30;;;;;;;2.58;87.99;104033.88;5032856;28;100740;-28
2023/01/24 01:12:25;;;;;;;5.80;3.58;;;;;;;2.57;88.26;104029.38;5034702;27;96548;-28
2023/01/24 01:14:50;;;;;;;5.30;3.55;;;;;;;2.56;87.99;104033.81;5035226;28;96801;-28
2023/01/24 01:17:16;;;;;;;4.40;2.33;;;;;;;2.53;87.75;104031.09;5034233;27;99516;-28
2023/01/24 01:19:42;;;;;;;5.32;3.33;;;;;;;2.52;88.14;104022.13;5032858;28;101481;-28
2023/01/24 01:22:07;;;;;;;5.25;3.35;;;;;;;2.55;88.19;104015.94;5032846;28;96652;-30
2023/01/24 01:24:33;;;;;;;5.50;4.30;;;;;;;2.50;87.96;104010.50;5037240;28;96993;-28
2023/01/24 01:26:59;;;;;;;5.47;3.17;;;;;;;2.47;88.12;104010.41;5038137;27;98113;-28
2023/01/24 01:29:24;;;;;;;4.53;3.17;;;;;;;2.53;87.87;104018.59;5036441;28;100665;-29
2023/01/24 01:31:50;;;;;;;3.50;2.63;;;;;;;2.52;88.07;104024.81;5038315;27;96692;-29
2023/01/24 01:34:15;;;;;;;4.88;2.50;;;;;;;2.48;87.39;104019.34;5038053;28;96804;-28
2023/01/24 01:36:40;;;;;;;6.18;3.72;;;;;;;2.52;87.75;104023.91;5037541;27;99139;-29
2023/01/24 01:39:06;;;;;;;3.97;3.30;;;;;;;2.49;87.89;104010.47;5037950;28;97513;-29
2023/01/24 01:41:32;;;;;;;3.75;2.80;;;;;;;2.53;87.90;104013.25;5037845;27;96690;-30
2023/01/24 01:47:02;;;;;;;3.47;2.55;;;;;;;2.49;87.95;104006.00;5037316;28;97095;-28
2023/01/24 01:49:28;;;;;;;4.35;3.08;;;;;;;2.48;87.92;103997.94;5037808;28;97236;-28
2023/01/24 01:51:59;;;;;;;5.60;3.67;;;;;;;2.53;88.11;104007.00;5036048;28;96822;-28
2023/01/24 01:54:36;;;;;;;4.70;4.00;;;;;;;2.49;88.02;104003.34;5036390;28;96791;-28
2023/01/24 01:57:07;;;;;;;3.53;2.55;;;;;;;2.49;87.79;104005.13;5037598;28;98140;-29
2023/01/24 01:59:37;;;;;;;4.20;2.90;;;;;;;2.48;87.56;104011.31;5036041;28;100705;-28
2023/01/24 02:02:05;;;;;;;3.22;2.60;;;;;;;2.48;87.67;104009.56;5037462;27;96754;-29
2023/01/24 02:04:38;;;;;;;5.28;2.55;;;;;;;2.47;87.51;104006.84;5036521;28;97453;-28
2023/01/24 02:07:24;;;;;;;3.47;2.35;;;;;;;2.45;87.75;104004.13;5035815;28;100873;-28
2023/01/24 02:09:53;;;;;;;6.38;3.75;;;;;;;2.50;87.78;104015.88;5036004;28;101044;-28
2023/01/24 02:12:23;;;;;;;6.28;3.78;;;;;;;2.47;88.15;104006.84;5035458;28;96644;-28
2023/01/24 02:17:39;;;;;;;4.93;2.75;;;;;;;2.46;87.90;103992.56;5037627;28;97108;-28
2023/01/24 02:20:16;;;;;;;4.68;3.30;;;;;;;2.45;88.07;103992.53;5035692;28;100693;-31
2023/01/24 02:23:18;;;;;;;4.50;3.35;;;;;;;2.47;87.70;104006.84;5037236;28;96720;-28
2023/01/24 02:25:51;;;;;;;;;;;;;;;2.45;88.19;104009.47;5037934;28;96898;-28
2023/01/24 02:28:17;;;;;;;2.42;1.40;;;;;;;2.44;87.75;104007.69;5036919;28;98029;-28
2023/01/24 02:30:42;;;;;;;3.63;2.50;;;;;;;2.40;87.86;104000.44;5035871;28;100800;-27
2023/01/24 02:33:18;;;;;;;2.70;1.95;;;;;;;2.42;88.00;103998.72;5036792;27;96506;-29
2023/01/24 02:35:45;;;;;;;3.00;1.60;;;;;;;2.41;87.72;103998.66;5035943;28;96561;-28
2023/01/24 02:38:22;;;;;;;4.07;2.58;;;;;;;2.39;87.79;104000.44;5036190;28;99526;-29
2023/01/24 02:40:51;;;;;;;4.68;2.33;;;;;;;2.40;87.85;104004.91;5036609;28;99594;-28
2023/01/24 02:43:19;;;;;;;4.82;2.30;;;;;;;2.39;87.76;104003.09;5035482;28;96755;-28
2023/01/24 02:45:44;;;;;;;4.70;2.80;;;;;;;2.37;87.53;104003.06;5035380;28;97054;-28
2023/01/24 02:48:10;;;;;;;4.97;2.90;;;;;;;2.36;87.81;104001.25;5036647;27;98704;-29
2023/01/24 02:53:30;;;;;;;3.73;2.43;;;;;;;2.39;88.50;104001.31;5011763;28;96857;-29
2023/01/24 02:58:48;;;;;;;3.83;2.72;;;;;;;2.39;87.74;103997.75;5036779;28;97098;-29
2023/01/24 03:01:14;;;;;;;6.43;2.78;;;;;;;2.36;87.68;104005.69;5036545;28;97319;-28
2023/01/24 03:03:42;;;;;;;3.80;2.55;;;;;;;2.37;88.01;103996.81;5034761;28;96748;-28
2023/01/24 03:06:08;;;;;;;3.13;1.95;;;;;;;2.37;87.71;103992.34;5035371;28;96876;-28
2023/01/24 03:08:34;;;;;;;7.57;4.32;;;;;;;2.34;87.92;104000.31;5036347;27;97953;-28
2023/01/24 03:11:00;;;;;;;3.97;2.85;;;;;;;2.29;87.45;103988.59;5034963;28;98925;-29
2023/01/24 03:35:20;;;;;;;2.25;2.08;;;;;;;2.27;88.03;103991.25;5035945;28;96523;-28
2023/01/24 03:40:29;;;;;;;3.92;1.95;;;;;;;2.22;87.32;103995.56;5036098;28;97071;-28
2023/01/24 03:42:54;;;;;;;7.07;3.17;;;;;;;2.26;87.54;103993.88;5035795;28;98096;-28
2023/01/24 03:45:23;;;;;;;5.80;3.05;;;;;;;2.28;87.61;103995.69;5035589;27;96458;-28
2023/01/24 03:47:54;;;;;;;6.35;3.70;;;;;;;2.29;87.79;103988.59;5035011;28;96776;-30
2023/01/24 03:53:18;;;;;;;2.63;2.20;;;;;;;2.29;87.77;103988.59;5034023;28;97052;-28
2023/01/24 03:55:43;;;;;;;9.68;4.10;;;;;;;2.30;87.81;103991.31;5034106;28;96532;-28
2023/01/24 03:58:11;;;;;;;6.05;3.38;;;;;;;2.27;88.11;103993.91;5036066;28;96650;-28
2023/01/24 04:00:37;;;;;;;3.58;2.67;;;;;;;2.26;87.34;103993.88;5033826;28;103753;-28
2023/01/24 04:03:02;;;;;;;5.20;3.55;;;;;;;2.22;87.76;103992.91;5033862;28;100778;-29
2023/01/24 04:05:27;;;;;;;4.10;2.90;;;;;;;2.23;87.74;103996.47;5035927;27;96439;-29
2023/01/24 04:07:54;;;;;;;8.27;4.80;;;;;;;2.22;88.03;103992.91;5035772;28;96814;-28
2023/01/24 04:10:21;;;;;;;6.15;4.13;;;;;;;2.21;87.63;103998.19;5035297;27;97458;-28
2023/01/24 04:12:46;;;;;;;5.80;3.33;;;;;;;2.19;87.77;103995.47;5035678;28;99330;-28
2023/01/24 04:15:21;;;;;;;7.22;3.83;;;;;;;2.13;86.88;103987.31;5035587;27;96614;-28
2023/01/24 04:17:46;;;;;;;7.50;4.25;;;;;;;2.18;87.75;103990.13;5034236;28;96801;-27
2023/01/24 04:20:13;;;;;;;6.22;3.72;;;;;;;2.19;88.05;103989.22;5034898;27;97807;-28
2023/01/24 04:22:39;;;;;;;3.60;2.95;;;;;;;2.18;87.78;103991.00;5033436;28;100907;-28
2023/01/24 04:25:04;;;;;;;3.75;2.85;;;;;;;2.19;87.37;103995.47;5034976;27;96848;-28
2023/01/24 04:27:30;;;;;;;4.68;2.85;;;;;;;2.15;87.58;103985.59;5035345;28;96819;-29
2023/01/24 04:29:55;;;;;;;4.45;3.05;;;;;;;2.15;87.10;103982.94;5034963;27;107105;-28
2023/01/24 04:32:20;;;;;;;3.47;2.72;;;;;;;2.11;87.47;103979.25;5035496;28;97421;-28
2023/01/24 04:34:46;;;;;;;3.20;2.78;;;;;;;2.16;87.55;103978.47;5035464;27;96507;-29
2023/01/24 04:37:11;;;;;;;5.75;2.72;;;;;;;2.22;87.98;103992.00;5035373;28;97920;-30
2023/01/24 04:39:36;;;;;;;6.88;2.88;;;;;;;2.20;87.96;103994.63;5034997;27;97480;-29
2023/01/24 04:42:02;;;;;;;6.63;4.15;;;;;;;2.20;87.83;103991.06;5035042;28;100371;-28
2023/01/24 04:44:27;;;;;;;5.15;3.63;;;;;;;2.20;87.88;103991.06;5034398;27;96693;-28
2023/01/24 04:46:53;;;;;;;4.50;3.45;;;;;;;2.20;87.39;103996.41;5034697;28;96811;-28
2023/01/24 04:49:18;;;;;;;5.95;3.60;;;;;;;2.20;87.76;103991.06;5034923;27;97269;-28
2023/01/24 04:51:46;;;;;;;5.03;3.50;;;;;;;2.20;87.77;103993.72;5034593;28;99279;-29
2023/01/24 04:54:12;;;;;;;6.93;4.10;;;;;;;2.18;87.84;103995.47;5033701;28;96665;-28
2023/01/24 04:56:37;;;;;;;8.10;4.18;;;;;;;2.21;87.82;103999.09;5034812;27;96792;-28
2023/01/24 04:59:03;;;;;;;6.07;4.10;;;;;;;2.19;88.11;104002.59;5033807;27;99181;-28
2023/01/24 05:01:28;;;;;;;4.22;3.75;;;;;;;2.18;87.59;104007.06;5035213;28;97757;-28
2023/01/24 05:03:58;;;;;;;5.07;3.25;;;;;;;2.18;87.50;104008.84;5035114;27;96523;-28
2023/01/24 05:06:26;;;;;;;7.03;3.83;;;;;;;2.19;87.63;104011.53;5035208;28;96542;-29
2023/01/24 05:08:53;;;;;;;5.03;3.40;;;;;;;2.20;87.86;104016.03;5034153;28;97987;-28
2023/01/24 05:11:18;;;;;;;4.80;2.63;;;;;;;2.17;87.31;104013.28;5033139;28;100974;-28
2023/01/24 05:13:44;;;;;;;3.75;3.00;;;;;;;2.19;87.49;104018.66;5034604;28;96571;-28
2023/01/24 05:16:09;;;;;;;4.88;4.32;;;;;;;2.18;87.80;104014.19;5035012;28;96927;-28
2023/01/24 05:18:34;;;;;;;3.10;2.55;;;;;;;2.18;87.86;104011.50;5034389;27;99263;-28
2023/01/24 05:21:08;;;;;;;8.02;3.55;;;;;;;2.16;87.83;104010.56;5034889;28;97186;-29
2023/01/24 05:23:34;;;;;;;4.30;3.05;;;;;;;2.18;87.87;104015.06;5032393;28;96569;-29
2023/01/24 05:26:01;;;;;;;8.15;4.30;;;;;;;2.15;87.48;104020.38;5035178;28;96643;-28
2023/01/24 05:28:26;;;;;;;4.45;3.38;;;;;;;2.12;87.22;104014.91;5032722;28;101766;-28
2023/01/24 05:30:51;;;;;;;5.25;2.40;;;;;;;2.06;86.78;104004.97;5034466;28;97299;-28
2023/01/24 05:33:17;;;;;;;9.43;2.90;;;;;;;2.08;87.16;104015.72;5034222;28;96483;-30
2023/01/24 05:35:44;;;;;;;5.30;3.22;;;;;;;2.09;87.36;104015.75;5034531;28;96718;-28
2023/01/24 05:38:09;;;;;;;5.32;3.15;;;;;;;2.11;87.48;104014.00;5032656;28;101398;-28
2023/01/24 05:40:36;;;;;;;5.85;3.30;;;;;;;2.12;87.68;104023.88;5034254;28;97769;-28
2023/01/24 05:43:01;;;;;;;5.53;3.55;;;;;;;2.12;87.45;104014.91;5034417;27;96479;-29
2023/01/24 05:45:26;;;;;;;4.60;3.17;;;;;;;2.11;87.40;104023.81;5034155;28;97114;-29
2023/01/24 05:47:51;;;;;;;4.38;2.95;;;;;;;2.12;87.77;104020.25;5034227;27;97982;-29
2023/01/24 05:50:17;;;;;;;4.13;2.55;;;;;;;2.10;87.06;104030.03;5034116;28;99293;-28
2023/01/24 05:52:42;;;;;;;3.92;2.58;;;;;;;2.11;87.80;104027.38;5034277;27;96537;-29
2023/01/24 05:55:08;;;;;;;4.80;2.67;;;;;;;2.12;87.44;104037.22;5034172;28;96859;-29
2023/01/24 05:57:36;;;;;;;4.97;3.17;;;;;;;2.12;87.69;104025.59;5033321;28;98928;-29
2023/01/24 06:00:03;;;;;;;7.00;3.65;;;;;;;2.11;87.80;104034.50;5033625;28;98268;-28
2023/01/24 06:02:28;;;;;;;4.68;2.90;;;;;;;2.14;88.18;104042.59;5032752;28;96627;-28
2023/01/24 06:04:53;;;;;;;5.72;3.08;;;;;;;2.11;87.94;104038.06;5033706;28;99222;-28
2023/01/24 06:07:19;;;;;;;5.63;3.80;;;;;;;2.06;87.56;104029.03;5033427;27;106458;-28
2023/01/24 06:09:44;;;;;;;3.80;2.20;;;;;;;2.10;88.09;104046.09;5036332;27;102011;-28
2023/01/24 06:12:09;;;;;;;4.63;3.05;;;;;;;2.13;87.82;104041.69;5037446;28;96554;-28
2023/01/24 06:14:34;;;;;;;6.65;3.63;;;;;;;2.12;87.63;104037.22;5037588;28;100677;-28
2023/01/24 06:17:00;;;;;;;7.57;4.32;;;;;;;2.12;87.58;104042.59;5037285;27;97858;-28
2023/01/24 06:19:26;;;;;;;10.57;5.50;;;;;;;2.12;87.87;104045.25;5037111;28;99761;-28
2023/01/24 06:22:17;;;;;;;9.55;7.15;;;;;;;2.14;87.94;104039.94;5037000;28;96552;-28
2023/01/24 06:24:42;;;;;;;10.48;7.53;;;;;;;2.11;88.17;104038.06;5037137;28;96746;-28
2023/01/24 06:27:08;;;;;;;5.55;3.45;;;;;;;2.13;87.83;104040.81;5037346;27;97835;-29
2023/01/24 06:29:34;;;;;;;8.73;3.75;;;;;;;2.16;87.94;104046.22;5035704;28;100779;-29
2023/01/24 06:32:17;;;;;;;6.82;5.00;;;;;;;2.17;88.57;104048.06;5037325;28;96961;-30
2023/01/24 06:35:04;;;;;;;9.30;5.00;;;;;;;2.18;88.48;104054.28;5035681;28;96602;-28
2023/01/24 06:37:52;;;;;;;3.75;2.60;;;;;;;2.11;87.78;104046.09;5035539;28;101015;-28
2023/01/24 06:40:25;;;;;;;3.97;3.58;;;;;;;2.10;88.55;104051.44;5035785;28;100886;-28
2023/01/24 06:42:52;;;;;;;6.82;3.88;;;;;;;2.12;88.04;104057.69;5035766;28;96763;-28
2023/01/24 06:45:19;;;;;;;4.90;2.83;;;;;;;2.06;88.17;104057.56;5036824;28;96735;-28
2023/01/24 06:47:44;;;;;;;5.72;4.78;;;;;;;2.06;88.42;104065.56;5034924;28;101115;-28
2023/01/24 06:50:21;;;;;;;4.43;2.63;;;;;;;2.00;87.80;104058.31;5036712;28;97789;-29
2023/01/24 06:52:47;;;;;;;9.57;4.82;;;;;;;2.04;87.95;104068.19;5036750;27;96641;-29
2023/01/24 06:55:12;;;;;;;5.35;4.30;;;;;;;2.05;88.05;104072.69;5035546;28;96843;-29
2023/01/24 06:57:38;;;;;;;7.43;3.22;;;;;;;2.08;88.13;104071.88;5034951;28;100855;-30
2023/01/24 07:00:05;;;;;;;8.55;4.43;;;;;;;2.08;88.13;104067.44;5036685;28;97856;-28
2023/01/24 07:02:30;;;;;;;4.68;3.33;;;;;;;2.03;88.15;104066.41;5035161;28;96538;-28
2023/01/24 07:04:56;;;;;;;5.03;2.80;;;;;;;2.00;88.05;104057.38;5035995;28;96849;-29
2023/01/24 07:07:21;;;;;;;8.90;3.28;;;;;;;1.98;88.33;104072.47;5034916;28;101041;-28
2023/01/24 07:09:47;;;;;;;1.70;1.50;;;;;;;1.98;88.04;104065.38;5036603;28;97804;-28
2023/01/24 07:12:12;;;;;;;6.28;3.47;;;;;;;1.98;88.02;104067.13;5036108;27;96452;-28
2023/01/24 07:14:37;;;;;;;7.68;5.03;;;;;;;1.97;88.36;104068.00;5036422;28;96811;-28
2023/01/24 07:17:03;;;;;;;7.13;4.00;;;;;;;1.92;88.50;104065.22;5036086;27;99223;-28
2023/01/24 07:19:29;;;;;;;10.68;6.40;;;;;;;1.94;88.52;104078.63;5036017;27;99106;-28
2023/01/24 07:21:56;;;;;;;6.30;4.13;;;;;;;1.92;88.07;104070.56;5035433;27;96621;-28
2023/01/24 07:24:24;;;;;;;4.72;2.97;;;;;;;1.91;88.30;104069.66;5034566;28;96771;-29
2023/01/24 07:26:50;;;;;;;2.78;2.38;;;;;;;1.88;88.03;104074.94;5034280;28;100242;-28
2023/01/24 07:29:19;;;;;;;5.57;3.65;;;;;;;1.90;88.34;104072.28;5040456;27;97849;-29
2023/01/24 07:31:44;;;;;;;3.80;2.35;;;;;;;1.93;88.27;104072.34;5045914;27;97435;-28
2023/01/24 07:34:10;;;;;;;8.32;4.57;;;;;;;1.93;88.58;104069.69;5036419;28;96625;-28
2023/01/24 07:36:36;;;;;;;7.15;4.20;;;;;;;1.91;88.43;104083.03;5034092;28;100668;-29
2023/01/24 07:39:02;;;;;;;4.35;2.38;;;;;;;1.91;88.02;104091.03;5035651;28;98806;-30
2023/01/24 07:41:27;;;;;;;5.80;3.80;;;;;;;1.89;87.97;104087.41;5034696;28;96510;-28
2023/01/24 07:43:53;;;;;;;5.05;2.75;;;;;;;1.92;87.98;104086.59;5036132;28;96839;-28
2023/01/24 07:46:19;;;;;;;3.55;2.42;;;;;;;1.89;88.33;104094.53;5034360;28;100915;-29
2023/01/24 07:48:44;;;;;;;5.88;3.40;;;;;;;1.85;88.42;104097.97;5034400;28;101039;-28
2023/01/24 07:51:10;;;;;;;4.03;2.38;;;;;;;1.81;88.30;104099.69;5035727;27;96913;-28
2023/01/24 07:53:36;;;;;;;7.35;5.40;;;;;;;1.81;88.11;104088.06;5036120;28;96842;-28
2023/01/24 07:56:02;;;;;;;6.63;2.58;;;;;;;1.80;88.41;104096.97;5035444;28;99326;-28
2023/01/24 07:58:28;;;;;;;6.78;4.25;;;;;;;1.80;88.64;104095.19;5034101;28;102203;-28
2023/01/24 08:00:53;;;;;;;7.68;4.50;;;;;;;1.75;87.91;104094.16;5035564;28;96546;-28
2023/01/24 08:03:19;;;;;;;2.67;2.22;;;;;;;1.81;88.20;104104.09;5035832;28;96778;-28
2023/01/24 08:05:44;;;;;;;3.92;2.33;;;;;;;1.79;88.13;104100.47;5035403;27;99243;-28
2023/01/24 08:08:09;;;;;;;2.40;1.75;;;;;;;1.74;88.51;104102.13;5035606;28;97475;-30
2023/01/24 08:10:35;;;;;;;5.13;2.92;;;;;;;1.78;88.41;104112.94;5036234;27;97190;-29
2023/01/24 08:13:00;;;;;;;2.78;2.42;;;;;;;1.78;88.34;104112.03;5035566;28;96745;-30
2023/01/24 08:15:26;;;;;;;5.55;2.92;;;;;;;1.78;88.65;104112.94;5035423;28;97387;-28
2023/01/24 08:17:51;;;;;;;5.13;3.30;;;;;;;1.82;88.88;104109.50;5035909;28;97758;-29
2023/01/24 08:20:16;;;;;;;4.95;3.08;;;;;;;1.86;88.44;104114.06;5035632;28;96432;-29
2023/01/24 08:22:42;;;;;;;6.45;4.07;;;;;;;1.82;88.38;104113.94;5035422;28;96720;-29
2023/01/24 08:25:08;;;;;;;5.75;3.97;;;;;;;1.82;88.02;104114.84;5032851;28;100928;-28
2023/01/24 08:27:35;;;;;;;5.80;3.85;;;;;;;1.81;88.30;104112.13;5033672;28;101200;-28
2023/01/24 08:30:00;;;;;;;7.68;3.60;;;;;;;1.81;88.39;104121.06;5033990;28;96558;-28
2023/01/24 08:32:25;;;;;;;5.05;3.35;;;;;;;1.77;88.06;104112.91;5035280;27;96757;-28
2023/01/24 08:34:51;;;;;;;3.50;1.45;;;;;;;1.76;88.08;104121.78;5035174;27;97885;-28
2023/01/24 08:37:16;;;;;;;3.67;2.88;;;;;;;1.76;88.17;104128.03;5034911;28;99231;-29
2023/01/24 08:39:42;;;;;;;5.90;4.28;;;;;;;1.75;88.19;104128.00;5035380;27;96499;-30
2023/01/24 08:42:09;;;;;;;6.68;3.22;;;;;;;1.73;88.67;104125.28;5035489;28;96832;-33
2023/01/24 08:44:34;;;;;;;4.60;3.45;;;;;;;1.77;88.41;104124.50;5033394;28;100900;-29
2023/01/24 08:46:59;;;;;;;7.80;3.92;;;;;;;1.80;88.23;104126.34;5035195;28;97236;-28
2023/01/24 08:49:25;;;;;;;7.35;3.05;;;;;;;1.81;88.50;104126.41;5034707;27;96556;-28
2023/01/24 08:51:58;;;;;;;5.55;3.78;;;;;;;1.81;88.44;104128.16;5034934;28;96801;-28
2023/01/24 08:54:27;;;;;;;4.55;2.70;;;;;;;1.82;88.22;104133.56;5034648;27;99531;-29
2023/01/24 08:56:52;;;;;;;7.82;3.75;;;;;;;1.85;88.47;104133.63;5033389;28;101123;-28
2023/01/24 08:59:18;;;;;;;4.75;3.15;;;;;;;1.85;88.72;104140.75;5035133;27;96622;-28
2023/01/24 09:01:43;;;;;;;4.35;2.72;;;;;;;1.82;88.33;104132.66;5035195;28;96714;-29
2023/01/24 09:04:11;;;;;;;2.08;1.88;;;;;;;1.75;88.54;104133.34;5034494;27;99367;-28
2023/01/24 09:06:36;;;;;;;4.82;3.30;;;;;;;1.75;88.33;104133.34;5033523;28;101030;-30
2023/01/24 09:09:03;;;;;;;4.90;2.65;;;;;;;1.76;88.16;104135.13;5034946;27;96756;-28
2023/01/24 09:11:29;;;;;;;10.15;3.70;;;;;;;1.77;88.55;104134.28;5033450;28;96815;-28
2023/01/24 09:13:55;;;;;;;3.17;2.40;;;;;;;1.77;88.39;104151.22;5032720;28;100654;-28
2023/01/24 09:16:20;;;;;;;7.20;4.15;;;;;;;1.76;88.90;104143.16;5034514;28;97807;-29
2023/01/24 09:18:45;;;;;;;5.72;4.38;;;;;;;1.79;88.69;104145.91;5034941;27;96671;-30
2023/01/24 09:21:11;;;;;;;5.00;2.03;;;;;;;1.83;89.03;104150.47;5034784;28;96794;-28
2023/01/24 09:23:36;;;;;;;7.00;3.67;;;;;;;1.84;88.31;104153.22;5033900;27;97307;-28
2023/01/24 09:26:01;;;;;;;4.70;3.25;;;;;;;1.88;88.70;104154.19;5034668;28;97816;-29
2023/01/24 09:28:27;;;;;;;4.88;2.83;;;;;;;1.89;88.92;104156.91;5035077;27;96577;-28
2023/01/24 09:30:52;;;;;;;7.25;4.05;;;;;;;1.83;88.90;104147.81;5034929;28;96778;-28
2023/01/24 09:33:18;;;;;;;5.63;3.70;;;;;;;1.86;88.82;104156.84;5034229;27;99446;-29
2023/01/24 09:36:00;;;;;;;6.85;2.85;;;;;;;1.86;88.67;104158.56;5034336;28;97981;-28
2023/01/24 09:38:28;;;;;;;6.43;4.18;;;;;;;1.85;88.75;104159.44;5033931;27;96876;-29
2023/01/24 09:41:03;;;;;;;3.75;2.92;;;;;;;1.88;88.72;104160.47;5034366;28;96702;-28
2023/01/24 09:43:29;;;;;;;5.40;3.63;;;;;;;1.94;89.04;104164.16;5033277;27;101448;-30
2023/01/24 09:45:54;;;;;;;4.20;2.88;;;;;;;1.92;89.01;104172.13;5037918;28;97922;-28
2023/01/24 09:48:20;;;;;;;3.97;2.97;;;;;;;1.95;88.88;104171.31;5038358;28;96521;-28
2023/01/24 09:50:57;;;;;;;6.65;4.15;;;;;;;1.90;88.59;104164.06;5036294;28;96843;-28
2023/01/24 09:53:32;;;;;;;2.95;2.40;;;;;;;1.92;88.74;104174.81;5036154;28;100847;-29
2023/01/24 09:55:58;;;;;;;4.32;2.90;;;;;;;1.94;88.87;104172.19;5036560;28;100957;-28
2023/01/24 09:58:31;;;;;;;10.45;3.58;;;;;;;1.94;88.67;104174.84;5037906;28;96457;-28
2023/01/24 10:01:17;;;;;;;5.50;3.35;;;;;;;1.91;88.50;104181.03;5036848;28;96657;-28
2023/01/24 10:03:42;;;;;;;4.38;3.35;;;;;;;1.89;88.76;104182.75;5036339;28;98185;-28
2023/01/24 10:06:13;;;;;;;5.20;3.03;;;;;;;1.86;88.80;104193.31;5037315;28;99291;-28
2023/01/24 10:08:57;;;;;;;3.75;1.73;;;;;;;1.77;88.43;104177.94;5037884;28;96538;-29
2023/01/24 10:11:31;;;;;;;5.78;3.92;;;;;;;1.80;88.52;104175.34;5036326;28;96687;-29
2023/01/24 10:14:08;;;;;;;4.57;3.00;;;;;;;1.83;89.28;104171.88;5037149;28;99284;-28
2023/01/24 10:16:52;;;;;;;5.82;2.80;;;;;;;1.87;89.12;104177.34;5035985;28;100839;-29
2023/01/24 10:19:20;;;;;;;9.32;3.22;;;;;;;1.88;89.11;104179.19;5037626;28;96559;-28
2023/01/24 10:21:45;;;;;;;14.82;4.50;;;;;;;1.86;88.46;104174.63;5037804;28;96802;-29
2023/01/24 10:24:20;;;;;;;5.63;3.63;;;;;;;1.85;88.92;104176.38;5035953;28;97971;-29
2023/01/24 10:26:51;;;;;;;9.77;5.68;;;;;;;1.83;88.73;104172.75;5035608;28;100996;-28
2023/01/24 10:29:21;;;;;;;5.30;3.95;;;;;;;1.87;88.88;104176.44;5035402;28;96590;-28
2023/01/24 10:31:54;;;;;;;4.97;3.10;;;;;;;1.86;88.95;104166.59;5036030;28;96636;-28
2023/01/24 10:34:32;;;;;;;8.63;3.33;;;;;;;1.86;88.53;104164.84;5036741;27;98784;-29
2023/01/24 10:37:04;;;;;;;5.70;3.05;;;;;;;1.88;88.48;104171.16;5036847;28;99091;-29
2023/01/24 10:39:29;;;;;;;7.03;3.75;;;;;;;1.87;88.85;104168.44;5035932;28;96591;-29
2023/01/24 10:41:55;;;;;;;6.53;3.35;;;;;;;1.88;88.75;104172.91;5037013;28;96785;-28
2023/01/24 10:44:26;;;;;;;3.65;2.60;;;;;;;1.89;88.54;104175.63;5036817;28;97950;-30
2023/01/24 10:47:14;;;;;;;9.07;3.30;;;;;;;1.88;88.53;104175.56;5035418;28;101041;-30
2023/01/24 10:49:43;;;;;;;1.67;1.17;;;;;;;1.85;88.58;104170.16;5036847;28;96555;-28
2023/01/24 10:52:19;;;;;;;3.80;2.55;;;;;;;1.84;88.58;104157.66;5035518;28;96835;-28
2023/01/24 10:54:46;;;;;;;6.80;3.85;;;;;;;1.82;88.17;104160.28;5034838;27;101007;-28
2023/01/24 10:57:42;;;;;;;4.28;3.28;;;;;;;1.88;88.86;104167.56;5036430;28;98871;-29
2023/01/24 11:00:30;;;;;;;6.13;2.80;;;;;;;1.88;88.37;104163.13;5036984;28;96516;-29
2023/01/24 11:03:01;;;;;;;3.08;2.55;;;;;;;1.89;88.92;104156.00;5036991;28;97096;-28
2023/01/24 11:05:45;;;;;;;2.20;1.45;;;;;;;1.87;88.57;104158.63;5035116;28;101294;-29
2023/01/24 11:08:21;;;;;;;4.38;2.42;;;;;;;1.82;88.42;104154.03;5034998;28;100986;-28
2023/01/24 11:10:51;;;;;;;3.85;2.25;;;;;;;1.86;88.80;104150.56;5035179;28;96609;-28
2023/01/24 11:13:38;;;;;;;6.53;2.80;;;;;;;1.92;88.29;104151.66;5035602;28;96680;-28
2023/01/24 11:16:15;;;;;;;6.85;4.00;;;;;;;1.93;88.23;104144.53;5034640;28;100984;-29
2023/01/24 11:19:06;;;;;;;7.63;3.47;;;;;;;1.89;88.50;104145.31;5036620;28;96622;-29
2023/01/24 11:21:32;;;;;;;4.60;3.00;;;;;;;1.85;88.32;104136.28;5035332;28;96676;-29
2023/01/24 11:24:13;;;;;;;4.35;3.10;;;;;;;1.85;88.31;104143.41;5035711;28;96794;-28
2023/01/24 11:27:09;;;;;;;3.30;2.00;;;;;;;1.83;88.20;104135.34;5036043;28;97510;-29
2023/01/24 11:29:34;;;;;;;6.60;3.53;;;;;;;1.91;88.50;104138.25;5036299;28;97449;-28
2023/01/24 11:32:22;;;;;;;3.53;2.17;;;;;;;1.91;88.07;104146.28;5036376;27;96569;-28
2023/01/24 11:35:08;;;;;;;4.07;3.10;;;;;;;1.90;88.29;104141.78;5036483;28;96477;-30
2023/01/24 11:37:45;;;;;;;6.55;3.83;;;;;;;1.93;88.30;104136.50;5034648;28;101447;-28
2023/01/24 11:40:31;;;;;;;7.30;2.70;;;;;;;1.95;88.12;104136.56;5036632;28;97886;-28
2023/01/24 11:43:12;;;;;;;4.30;3.08;;;;;;;1.97;88.41;104125.03;5034766;28;96600;-28
2023/01/24 11:45:43;;;;;;;1.80;1.58;;;;;;;1.94;88.49;104127.63;5036414;28;96443;-29
2023/01/24 11:48:21;;;;;;;4.60;3.33;;;;;;;1.92;88.36;104124.91;5034016;28;100955;-28
2023/01/24 11:51:21;;;;;;;1.48;1.38;;;;;;;1.87;88.28;104121.22;5034392;28;102660;-28
2023/01/24 11:53:58;;;;;;;5.82;3.42;;;;;;;1.92;88.77;104119.56;5003714;27;96710;-28
2023/01/24 11:56:48;;;;;;;4.20;3.38;;;;;;;1.93;88.18;104107.09;5034570;28;96683;-28
2023/01/24 11:59:23;;;;;;;4.75;2.50;;;;;;;1.96;88.06;104112.56;5034143;28;100028;-28
2023/01/24 12:01:48;;;;;;;3.53;2.17;;;;;;;1.98;87.95;104109.91;5035456;28;97868;-28
2023/01/24 12:04:59;;;;;;;5.15;2.83;;;;;;;1.93;88.14;104099.06;5035964;28;96557;-29
2023/01/24 12:07:42;;;;;;;4.47;2.83;;;;;;;1.90;88.15;104101.69;4998549;28;96810;-28
2023/01/24 12:10:28;;;;;;;3.45;2.10;;;;;;;1.86;87.80;104091.75;5035490;27;97541;-28
2023/01/24 12:13:14;;;;;;;2.70;2.17;;;;;;;1.91;88.04;104098.16;5034306;28;98136;-29
2023/01/24 12:16:02;;;;;;;4.13;2.63;;;;;;;1.93;87.89;104091.06;5035544;27;96547;-29
2023/01/24 12:18:59;;;;;;;4.13;2.58;;;;;;;1.96;88.31;104082.25;5034088;28;96719;-29
2023/01/24 12:21:25;;;;;;;3.03;1.77;;;;;;;1.97;88.22;104070.69;5035568;28;97509;-28